Bookmark and Share
Track history (hours):
 

Mekong

More information available from US FCC via Universal Licensing System and Coast Guard Vessel Documentation Center.

Last reported at 2014-Apr-12 20:22 UTC. Time now 2014-Apr-19 09:30 UTC.
Position N 40°10' W 072°59'.

Length 26 m.

Type: Pollution control. MMSI: 367379210.

NotesDate/timePositionNaut miles runAvg speedWind from/ knotsBaromVisibWave heightAir tempDewpointWater temp
2014-Apr-12 20:22N 40°10' W 072°59'2 0.2
2014-Apr-12 12:33N 40°11' W 073°00'0 0.1
2014-Apr-12 11:32N 40°11' W 073°00'0 0.0
2014-Apr-11 23:13N 40°11' W 072°60'1 0.8
2014-Apr-11 22:33N 40°10' W 073°00'0 0.3
2014-Apr-11 21:33N 40°11' W 072°60'1 0.5
2014-Apr-11 20:33N 40°11' W 073°01'3 1.5
2014-Apr-11 18:30N 40°13' W 072°57'4 3.8
2014-Apr-11 17:33N 40°14' W 072°53'4 3.8
2014-Apr-11 16:33N 40°16' W 072°49'4 4.1
2014-Apr-11 15:33N 40°17' W 072°43'2 1.4
2014-Apr-11 14:25N 40°17' W 072°45'2 1.2
2014-Apr-11 12:32N 40°17' W 072°42'2 0.5
2014-Apr-11 09:11N 40°17' W 072°45'0 0.6
2014-Apr-11 08:33N 40°17' W 072°45'1 0.5
2014-Apr-11 07:31N 40°17' W 072°44'1 1.3
2014-Apr-11 06:22N 40°17' W 072°46'0 0.4
2014-Apr-11 05:26N 40°17' W 072°46'1 1.6
2014-Apr-11 04:32N 40°17' W 072°44'2 2.0
2014-Apr-11 03:34N 40°17' W 072°47'1 1.2
2014-Apr-11 02:33N 40°17' W 072°45'1 0.9
2014-Apr-11 01:33N 40°17' W 072°44'3 2.8
2014-Apr-11 00:33N 40°17' W 072°48'  

Dump ship's entire track history

sailing weather and tide predictions

Mekong — WDE6357 — position and weather